createdAt,value
2018-01-07T07:07:42.887Z,90.80
2018-01-07T07:10:14.758Z,90.70
2018-01-07T07:12:47.391Z,90.70
2018-01-07T07:15:19.275Z,90.70
2018-01-07T07:17:51.143Z,90.70
2018-01-07T07:20:23.026Z,90.90
2018-01-07T07:22:54.927Z,90.60
2018-01-07T07:25:26.818Z,90.50
2018-01-07T07:27:58.683Z,90.40
2018-01-07T07:30:30.567Z,90.50
2018-01-07T07:33:02.432Z,90.40
2018-01-07T07:35:34.318Z,90.30
2018-01-07T07:38:06.207Z,90.20
2018-01-07T07:40:38.103Z,90.20
2018-01-07T07:43:10.778Z,90.30
2018-01-07T07:45:43.434Z,90.20
2018-01-07T07:48:15.312Z,90.20
2018-01-07T07:50:47.958Z,90.30
2018-01-07T07:53:19.836Z,90.20
2018-01-07T07:55:51.734Z,90.30
2018-01-07T07:58:23.607Z,90.20
2018-01-07T08:00:55.488Z,90.60
2018-01-07T08:03:27.346Z,90.30
2018-01-07T08:05:59.256Z,90.30
2018-01-07T08:08:31.883Z,90.30
2018-01-07T08:11:03.763Z,90.20
2018-01-07T08:13:35.626Z,90.20
2018-01-07T08:16:07.519Z,90.30
2018-01-07T08:18:40.150Z,90.00
2018-01-07T08:21:12.047Z,90.00
2018-01-07T08:23:44.677Z,90.10
2018-01-07T08:26:16.558Z,90.10
2018-01-07T08:28:48.429Z,90.00
2018-01-07T08:31:20.331Z,89.90
2018-01-07T08:33:52.203Z,89.40
2018-01-07T08:36:24.102Z,89.70
2018-01-07T08:38:55.971Z,88.90
2018-01-07T08:41:27.868Z,89.10
2018-01-07T08:43:59.735Z,89.70
2018-01-07T08:46:31.624Z,89.00
2018-01-07T08:49:03.490Z,89.00
2018-01-07T08:51:35.396Z,88.60
2018-01-07T08:54:07.260Z,88.10
2018-01-07T08:56:39.165Z,88.00
2018-01-07T08:59:11.032Z,88.10
2018-01-07T09:01:42.940Z,87.80
2018-01-07T09:04:14.806Z,88.10
2018-01-07T09:06:46.699Z,87.90
2018-01-07T09:09:18.562Z,87.80
2018-01-07T09:11:50.441Z,87.40
2018-01-07T09:14:22.304Z,87.60
2018-01-07T09:16:54.199Z,87.30
2018-01-07T09:19:26.070Z,87.50
2018-01-07T09:21:57.979Z,87.60
2018-01-07T09:24:29.816Z,87.00
2018-01-07T09:27:01.707Z,87.10
2018-01-07T09:29:33.583Z,86.60
2018-01-07T09:32:06.267Z,86.50
2018-01-07T09:34:38.899Z,86.00
2018-01-07T09:37:10.787Z,86.00
2018-01-07T09:39:42.687Z,86.20
2018-01-07T09:42:14.583Z,85.80
2018-01-07T09:44:46.455Z,85.50
2018-01-07T09:47:18.359Z,85.50
2018-01-07T09:49:50.247Z,85.20
2018-01-07T09:52:22.139Z,85.20
2018-01-07T09:54:54.009Z,85.50
2018-01-07T09:57:25.923Z,85.40
2018-01-07T09:59:57.813Z,85.20
2018-01-07T10:02:29.712Z,85.50
2018-01-07T10:05:02.338Z,85.40
2018-01-07T10:07:35.032Z,85.40
2018-01-07T10:10:07.703Z,84.50
2018-01-07T10:12:39.595Z,84.40
2018-01-07T10:15:12.223Z,84.40
2018-01-07T10:17:44.127Z,83.80
2018-01-07T10:20:16.799Z,84.10
2018-01-07T10:22:48.686Z,83.60
2018-01-07T10:25:20.559Z,83.50
2018-01-07T10:27:52.463Z,83.70
2018-01-07T10:30:24.331Z,84.20
2018-01-07T10:32:56.223Z,83.80
2018-01-07T10:35:28.111Z,83.60
2018-01-07T10:38:00.005Z,84.20
2018-01-07T10:40:31.871Z,83.40
2018-01-07T10:43:03.772Z,83.80
2018-01-07T10:45:35.634Z,83.30
2018-01-07T10:48:07.556Z,83.10
2018-01-07T10:50:39.423Z,82.70
2018-01-07T10:53:11.330Z,82.70
2018-01-07T10:55:43.199Z,82.70
2018-01-07T10:58:15.087Z,82.40
2018-01-07T11:00:46.951Z,82.40
2018-01-07T11:03:18.844Z,82.30
2018-01-07T11:05:51.496Z,81.70
2018-01-07T11:08:24.987Z,81.70
2018-01-07T11:10:56.854Z,81.70
2018-01-07T11:13:28.756Z,81.50
2018-01-07T11:16:00.628Z,81.20
2018-01-07T11:18:32.527Z,81.00
2018-01-07T11:21:04.396Z,80.90
2018-01-07T11:23:36.314Z,80.50
2018-01-07T11:26:08.184Z,80.80
2018-01-07T11:28:40.079Z,80.50
2018-01-07T11:31:11.951Z,80.40
2018-01-07T11:33:44.603Z,79.80
2018-01-07T11:38:54.858Z,80.30
2018-01-07T11:41:26.759Z,80.00
2018-01-07T11:43:59.446Z,80.20
2018-01-07T11:46:32.079Z,79.90
2018-01-07T11:49:03.983Z,79.80
2018-01-07T11:51:36.645Z,79.90
2018-01-07T11:54:08.504Z,79.70
2018-01-07T11:56:40.378Z,80.20
2018-01-07T11:59:13.071Z,80.10
2018-01-07T12:01:45.699Z,80.10
2018-01-07T12:04:17.583Z,80.00
2018-01-07T12:06:49.456Z,80.20
2018-01-07T12:09:22.119Z,80.10
2018-01-07T12:11:53.982Z,80.10
2018-01-07T12:14:25.887Z,80.20
2018-01-07T12:16:57.797Z,79.90
2018-01-07T12:19:29.656Z,79.90
2018-01-07T12:22:01.523Z,79.60
2018-01-07T12:24:34.171Z,80.70
2018-01-07T12:27:06.190Z,80.00
2018-01-07T12:29:38.078Z,80.00
2018-01-07T12:32:09.946Z,80.20
2018-01-07T12:34:41.851Z,80.00
2018-01-07T12:37:14.492Z,80.60
2018-01-07T12:39:46.394Z,80.50
2018-01-07T12:42:19.032Z,80.10
2018-01-07T12:44:50.929Z,80.10
2018-01-07T12:47:23.567Z,80.10
2018-01-07T12:49:55.498Z,80.10
2018-01-07T12:52:28.100Z,80.60
2018-01-07T12:54:59.987Z,80.60
2018-01-07T12:57:31.854Z,80.30
2018-01-07T13:00:03.758Z,80.10
2018-01-07T13:02:35.622Z,80.50
2018-01-07T13:05:07.523Z,80.80
2018-01-07T13:07:39.387Z,80.20
2018-01-07T13:10:11.284Z,80.30
2018-01-07T13:12:43.155Z,80.30
2018-01-07T13:15:15.052Z,80.30
2018-01-07T13:17:46.924Z,80.40
2018-01-07T13:20:18.822Z,80.00
2018-01-07T13:22:50.686Z,80.50
2018-01-07T13:25:22.583Z,79.80
2018-01-07T13:27:54.707Z,79.80
2018-01-07T13:30:26.604Z,80.10
2018-01-07T13:32:58.480Z,80.00
2018-01-07T13:35:30.384Z,80.30
2018-01-07T13:38:03.019Z,80.00
2018-01-07T13:40:34.916Z,80.00
2018-01-07T13:43:07.553Z,79.90
2018-01-07T13:45:39.446Z,79.90
2018-01-07T13:48:12.087Z,80.10
2018-01-07T13:50:43.970Z,80.00
2018-01-07T13:53:15.831Z,79.90
2018-01-07T13:55:47.735Z,79.90
2018-01-07T13:58:19.610Z,80.20
2018-01-07T14:00:51.564Z,80.30
2018-01-07T14:03:23.420Z,79.40
2018-01-07T14:05:55.303Z,80.10
2018-01-07T14:08:27.167Z,80.00
2018-01-07T14:10:59.063Z,80.40
2018-01-07T14:13:31.699Z,79.70
2018-01-07T14:16:03.579Z,79.70
2018-01-07T14:18:35.452Z,80.10
2018-01-07T14:21:07.359Z,80.20
2018-01-07T14:23:39.240Z,80.60
2018-01-07T14:26:11.142Z,80.60
2018-01-07T14:28:43.816Z,80.20
2018-01-07T14:31:15.727Z,80.20
2018-01-07T14:33:47.686Z,80.90
2018-01-07T14:36:19.571Z,79.80
2018-01-07T14:38:51.433Z,79.90
2018-01-07T14:41:23.340Z,80.20
2018-01-07T14:43:56.022Z,80.30
2018-01-07T14:46:28.664Z,80.30
2018-01-07T14:49:00.531Z,80.30
2018-01-07T14:51:32.428Z,80.70
2018-01-07T14:54:04.290Z,80.50
2018-01-07T14:56:36.172Z,80.50
2018-01-07T14:59:08.034Z,80.40
2018-01-07T15:01:39.918Z,80.30
2018-01-07T15:04:11.791Z,80.20
2018-01-07T15:06:43.676Z,80.50
2018-01-07T15:09:16.303Z,80.50
2018-01-07T15:11:48.182Z,80.50
2018-01-07T15:14:20.068Z,80.30
2018-01-07T15:16:52.719Z,80.60
2018-01-07T15:19:24.588Z,80.60
2018-01-07T15:21:57.267Z,80.10
2018-01-07T15:24:29.140Z,80.10
2018-01-07T15:27:01.796Z,80.70
2018-01-07T15:29:33.662Z,80.60
2018-01-07T15:32:05.549Z,80.30
2018-01-07T15:34:37.419Z,80.40
2018-01-07T15:37:09.319Z,80.30
2018-01-07T15:39:41.188Z,80.60
2018-01-07T15:42:13.071Z,80.60
2018-01-07T15:44:45.706Z,80.80
2018-01-07T15:47:17.587Z,80.70
2018-01-07T15:49:49.450Z,80.10
2018-01-07T15:52:21.356Z,80.40
2018-01-07T15:54:53.512Z,80.30
2018-01-07T15:57:25.405Z,80.40
2018-01-07T15:59:57.262Z,80.50
2018-01-07T16:02:29.167Z,80.70
2018-01-07T16:05:01.035Z,80.60
2018-01-07T16:07:33.688Z,80.80
2018-01-07T16:10:05.795Z,80.70
2018-01-07T16:12:37.963Z,80.60
2018-01-07T16:15:09.926Z,80.70
2018-01-07T16:17:42.582Z,80.90
2018-01-07T16:20:15.215Z,82.00
2018-01-07T16:22:47.112Z,81.30
2018-01-07T16:25:18.975Z,81.10
2018-01-07T16:27:50.872Z,80.90
2018-01-07T16:30:22.744Z,81.10
2018-01-07T16:32:54.639Z,81.20
2018-01-07T16:35:26.555Z,81.10
2018-01-07T16:37:58.458Z,81.40
2018-01-07T16:40:30.355Z,81.40
2018-01-07T16:43:02.998Z,81.40
2018-01-07T16:45:34.892Z,81.30
2018-01-07T16:48:07.585Z,81.70
2018-01-07T16:50:39.488Z,81.70
2018-01-07T16:53:11.393Z,81.80
2018-01-07T16:55:44.054Z,82.00
2018-01-07T16:58:15.950Z,81.90
2018-01-07T17:00:47.822Z,82.00
2018-01-07T17:03:19.731Z,81.90
2018-01-07T17:05:52.383Z,81.90
2018-01-07T17:08:24.318Z,81.90
2018-01-07T17:10:56.916Z,81.90
2018-01-07T17:13:28.801Z,81.80
2018-01-07T17:16:00.675Z,82.10
2018-01-07T17:18:32.559Z,82.10
2018-01-07T17:21:04.427Z,81.60
2018-01-07T17:23:36.341Z,82.00
2018-01-07T17:26:08.203Z,82.00
2018-01-07T17:28:40.108Z,82.10
2018-01-07T17:31:11.979Z,82.10
2018-01-07T17:33:43.867Z,82.00
2018-01-07T17:36:15.740Z,82.30
2018-01-07T17:38:47.635Z,82.50
2018-01-07T17:41:19.508Z,82.60
2018-01-07T17:43:51.411Z,82.50
2018-01-07T17:46:23.279Z,82.50
2018-01-07T17:48:55.174Z,82.70
2018-01-07T17:51:27.807Z,82.90
2018-01-07T17:53:59.710Z,82.90
2018-01-07T17:56:32.340Z,82.80
2018-01-07T17:59:04.235Z,82.80
2018-01-07T18:01:36.863Z,82.80
2018-01-07T18:04:08.760Z,82.80
2018-01-07T18:06:40.627Z,83.00
2018-01-07T18:09:12.527Z,83.10
2018-01-07T18:11:44.407Z,83.10
2018-01-07T18:14:16.315Z,83.20
2018-01-07T18:16:48.946Z,83.30
2018-01-07T18:19:20.838Z,83.30
2018-01-07T18:21:52.698Z,83.30
2018-01-07T18:24:24.600Z,83.30
2018-01-07T18:26:56.463Z,83.30
2018-01-07T18:29:28.353Z,83.40
2018-01-07T18:32:00.227Z,83.30
2018-01-07T18:34:32.139Z,83.20
2018-01-07T18:37:04.012Z,83.20
2018-01-07T18:39:35.900Z,83.30
2018-01-07T18:42:07.766Z,83.50
2018-01-07T18:44:39.666Z,83.40
2018-01-07T18:47:12.294Z,83.20
2018-01-07T18:49:44.191Z,83.10
2018-01-07T18:52:16.833Z,83.30
2018-01-07T18:54:48.735Z,83.30
2018-01-07T18:57:21.372Z,83.70
2018-01-07T18:59:53.263Z,83.60
2018-01-07T19:02:25.895Z,83.50
2018-01-07T19:04:57.775Z,83.50
2018-01-07T19:07:29.686Z,83.20
2018-01-07T19:10:01.609Z,83.40
2018-01-07T19:12:33.486Z,83.50
2018-01-07T19:15:06.134Z,82.90
2018-01-07T19:17:38.003Z,83.50
2018-01-07T19:20:09.911Z,83.30
2018-01-07T19:22:41.820Z,83.70
2018-01-07T19:25:13.743Z,83.70
2018-01-07T19:27:45.604Z,83.70
2018-01-07T19:30:17.548Z,83.80
2018-01-07T19:32:49.415Z,83.70
2018-01-07T19:35:21.304Z,84.70
2018-01-07T19:37:53.170Z,83.80
2018-01-07T19:40:25.076Z,83.90
2018-01-07T19:42:57.755Z,84.20
2018-01-07T19:45:30.424Z,83.90
2018-01-07T19:48:03.062Z,84.00
2018-01-07T19:50:34.984Z,84.00
2018-01-07T19:53:07.604Z,83.50
2018-01-07T19:55:39.488Z,83.50
2018-01-07T19:58:11.356Z,83.80
2018-01-07T20:00:44.004Z,84.10
2018-01-07T20:03:15.868Z,83.60
2018-01-07T20:05:47.753Z,83.90
2018-01-07T20:08:19.633Z,83.80
2018-01-07T20:10:52.295Z,83.60
2018-01-07T20:13:24.931Z,83.70
2018-01-07T20:15:56.821Z,83.60
2018-01-07T20:18:28.683Z,83.60
2018-01-07T20:21:00.596Z,84.20
2018-01-07T20:23:32.466Z,83.80
2018-01-07T20:26:04.366Z,84.00
2018-01-07T20:28:36.232Z,84.00
2018-01-07T20:31:08.899Z,84.10
2018-01-07T20:33:40.771Z,84.00
2018-01-07T20:36:13.555Z,83.90
2018-01-07T20:38:46.191Z,83.90
2018-01-07T20:41:18.083Z,83.80
